createdAt,value
2022-08-26T00:00:51.887Z,21.90
2022-08-26T00:03:20.925Z,21.90
2022-08-26T00:05:52.244Z,21.90
2022-08-26T00:08:21.396Z,21.80
2022-08-26T00:10:50.602Z,21.80
2022-08-26T00:13:22.010Z,21.80
2022-08-26T00:15:51.606Z,21.80
2022-08-26T00:18:22.877Z,21.80
2022-08-26T00:20:54.663Z,21.70
2022-08-26T00:23:24.265Z,21.70
2022-08-26T00:25:52.989Z,21.70
2022-08-26T00:28:22.345Z,21.70
2022-08-26T00:30:52.089Z,21.80
2022-08-26T00:33:23.219Z,21.80
2022-08-26T00:35:51.684Z,21.80
2022-08-26T00:38:24.962Z,21.80
2022-08-26T00:40:55.467Z,21.80
2022-08-26T00:43:30.908Z,21.80
2022-08-26T00:46:22.888Z,21.80
2022-08-26T00:48:59.565Z,21.80
2022-08-26T00:51:29.772Z,21.80
2022-08-26T00:54:05.606Z,21.70
2022-08-26T00:56:38.606Z,21.70
2022-08-26T00:59:11.349Z,21.70
2022-08-26T01:01:47.050Z,21.70
2022-08-26T01:04:19.311Z,21.70
2022-08-26T01:06:53.565Z,21.70
2022-08-26T01:09:23.414Z,21.70
2022-08-26T01:11:55.342Z,21.70
2022-08-26T01:14:25.831Z,21.70
2022-08-26T01:16:57.551Z,21.70
2022-08-26T01:19:30.760Z,21.70
2022-08-26T01:22:06.454Z,21.70
2022-08-26T01:24:36.283Z,21.70
2022-08-26T01:27:08.089Z,21.70
2022-08-26T01:29:43.593Z,21.60
2022-08-26T01:32:15.297Z,21.60
2022-08-26T01:34:48.311Z,21.60
2022-08-26T01:37:19.619Z,21.70
2022-08-26T01:39:52.765Z,21.70
2022-08-26T01:42:23.802Z,21.70
2022-08-26T01:45:00.049Z,21.70
2022-08-26T01:47:30.844Z,21.70
2022-08-26T01:50:00.858Z,21.70
2022-08-26T01:52:33.930Z,21.70
2022-08-26T01:55:03.558Z,21.70
2022-08-26T01:57:32.320Z,21.70
2022-08-26T02:00:02.860Z,21.70
2022-08-26T02:02:31.047Z,21.60
2022-08-26T02:05:05.428Z,21.70
2022-08-26T02:07:34.533Z,21.70
2022-08-26T02:10:06.998Z,21.70
2022-08-26T02:12:35.317Z,21.60
2022-08-26T02:15:11.148Z,21.60
2022-08-26T02:17:42.090Z,21.60
2022-08-26T02:20:16.770Z,21.60
2022-08-26T02:22:46.017Z,21.70
2022-08-26T02:25:20.737Z,21.60
2022-08-26T02:27:49.161Z,21.60
2022-08-26T02:30:19.909Z,21.60
2022-08-26T02:32:49.592Z,21.60
2022-08-26T02:35:20.508Z,21.60
2022-08-26T02:37:50.030Z,21.50
2022-08-26T02:40:26.815Z,21.50
2022-08-26T02:42:55.997Z,21.50
2022-08-26T02:45:26.246Z,21.50
2022-08-26T02:47:56.261Z,21.50
2022-08-26T02:50:25.611Z,21.50
2022-08-26T02:52:56.741Z,21.40
2022-08-26T02:55:27.263Z,21.40
2022-08-26T02:57:58.656Z,21.40
2022-08-26T03:00:27.227Z,21.40
2022-08-26T03:02:58.198Z,21.40
2022-08-26T03:05:26.439Z,21.40
2022-08-26T03:07:54.631Z,21.40
2022-08-26T03:10:27.470Z,21.40
2022-08-26T03:12:56.128Z,21.40
2022-08-26T03:15:27.691Z,21.40
2022-08-26T03:17:56.382Z,21.40
2022-08-26T03:20:25.414Z,21.40
2022-08-26T03:22:53.522Z,21.40
2022-08-26T03:25:25.740Z,21.30
2022-08-26T03:27:55.264Z,21.30
2022-08-26T03:30:44.836Z,21.30
2022-08-26T03:33:17.473Z,21.20
2022-08-26T03:35:47.852Z,21.10
2022-08-26T03:38:25.256Z,21.10
2022-08-26T03:40:53.370Z,21.00
2022-08-26T03:43:26.679Z,21.00
2022-08-26T03:45:54.825Z,21.00
2022-08-26T03:48:22.870Z,21.00
2022-08-26T03:50:51.473Z,20.90
2022-08-26T03:53:25.422Z,20.90
2022-08-26T03:55:54.024Z,20.90
2022-08-26T03:58:26.567Z,20.90
2022-08-26T04:00:55.600Z,20.90
2022-08-26T04:03:38.141Z,20.90
2022-08-26T04:06:06.917Z,20.90
2022-08-26T04:08:35.006Z,20.80
2022-08-26T04:11:07.029Z,20.80
2022-08-26T04:13:36.632Z,20.80
2022-08-26T04:16:08.136Z,20.80
2022-08-26T04:18:46.477Z,20.80
2022-08-26T04:21:15.590Z,20.70
2022-08-26T04:23:47.737Z,20.70
2022-08-26T04:26:16.719Z,20.70
2022-08-26T04:28:46.272Z,20.70
2022-08-26T04:31:16.216Z,20.70
2022-08-26T04:33:45.200Z,20.70
2022-08-26T04:36:15.112Z,20.70
2022-08-26T04:38:43.242Z,20.60
2022-08-26T04:41:17.075Z,20.70
2022-08-26T04:43:47.603Z,20.70
2022-08-26T04:46:22.712Z,20.60
2022-08-26T04:48:52.344Z,20.60
2022-08-26T04:51:27.966Z,20.60
2022-08-26T04:53:57.226Z,20.60
2022-08-26T04:56:26.324Z,20.60
2022-08-26T04:58:56.484Z,20.60
2022-08-26T05:01:24.683Z,20.60
2022-08-26T05:03:53.033Z,20.70
2022-08-26T05:06:21.168Z,20.60
2022-08-26T05:08:53.129Z,20.60
2022-08-26T05:11:22.142Z,20.60
2022-08-26T05:13:53.243Z,20.60
2022-08-26T05:16:22.862Z,20.60
2022-08-26T05:18:54.023Z,20.60
2022-08-26T05:21:24.426Z,20.60
2022-08-26T05:23:55.981Z,20.60
2022-08-26T05:26:27.479Z,20.60
2022-08-26T05:28:57.271Z,20.60
2022-08-26T05:31:29.155Z,20.60
2022-08-26T05:33:57.847Z,20.60
2022-08-26T05:36:28.272Z,20.70
2022-08-26T05:38:59.443Z,20.70
2022-08-26T05:41:36.173Z,20.70
2022-08-26T05:44:08.641Z,20.70
2022-08-26T05:46:41.114Z,20.80
2022-08-26T05:49:12.658Z,20.80
2022-08-26T05:51:44.301Z,20.80
2022-08-26T05:54:12.428Z,20.80
2022-08-26T05:56:45.523Z,20.80
2022-08-26T05:59:15.653Z,20.70
2022-08-26T06:01:49.413Z,20.70
2022-08-26T06:04:17.812Z,20.80
2022-08-26T06:06:51.387Z,20.80
2022-08-26T06:09:19.490Z,20.80
2022-08-26T06:11:48.057Z,20.80
2022-08-26T06:14:17.265Z,20.90
2022-08-26T06:16:48.041Z,20.90
2022-08-26T06:19:21.549Z,21.00
2022-08-26T06:21:54.898Z,21.00
2022-08-26T06:24:42.600Z,21.10
2022-08-26T06:27:13.655Z,21.20
2022-08-26T06:29:45.050Z,21.30
2022-08-26T06:32:14.900Z,21.30
2022-08-26T06:34:42.996Z,21.40
2022-08-26T06:37:11.164Z,21.40
2022-08-26T06:39:40.180Z,21.50
2022-08-26T06:42:12.604Z,21.60
2022-08-26T06:44:41.673Z,21.60
2022-08-26T06:47:17.338Z,21.70
2022-08-26T06:49:45.421Z,21.70
2022-08-26T06:52:21.194Z,21.80
2022-08-26T06:54:53.073Z,21.90
2022-08-26T06:57:21.425Z,21.90
2022-08-26T06:59:51.088Z,22.00
2022-08-26T07:02:23.556Z,22.00
2022-08-26T07:04:56.794Z,22.00
2022-08-26T07:07:25.112Z,22.10
2022-08-26T07:09:53.505Z,22.10
2022-08-26T07:12:24.672Z,22.10
2022-08-26T07:14:53.459Z,22.10
2022-08-26T07:17:25.088Z,22.10
2022-08-26T07:19:54.646Z,22.10
2022-08-26T07:22:22.756Z,22.10
2022-08-26T07:24:55.334Z,22.00
2022-08-26T07:27:23.884Z,22.00
2022-08-26T07:29:58.396Z,22.00
2022-08-26T07:32:27.931Z,21.90
2022-08-26T07:34:56.040Z,21.90
2022-08-26T07:37:25.111Z,22.00
2022-08-26T07:39:53.337Z,22.00
2022-08-26T07:42:21.880Z,22.00
2022-08-26T07:44:50.334Z,22.00
2022-08-26T07:47:24.770Z,22.00
2022-08-26T07:49:57.403Z,22.00
2022-08-26T07:52:29.907Z,22.00
2022-08-26T07:54:59.569Z,22.00
2022-08-26T07:57:31.028Z,21.90
2022-08-26T07:59:59.822Z,21.90
2022-08-26T08:02:33.026Z,21.90
2022-08-26T08:05:04.719Z,21.90
2022-08-26T08:07:44.926Z,21.90
2022-08-26T08:10:20.978Z,21.90
2022-08-26T08:12:50.234Z,21.90
2022-08-26T08:15:25.016Z,21.90
2022-08-26T08:17:54.783Z,22.00
2022-08-26T08:20:27.538Z,22.00
2022-08-26T08:22:56.102Z,22.00
2022-08-26T08:25:29.190Z,22.00
2022-08-26T08:27:57.483Z,22.00
2022-08-26T08:30:28.150Z,22.00
2022-08-26T08:32:57.037Z,22.00
2022-08-26T08:35:29.431Z,22.00
2022-08-26T08:37:58.109Z,22.00
2022-08-26T08:40:28.161Z,22.00
2022-08-26T08:43:04.839Z,22.10
2022-08-26T08:45:39.587Z,22.10
2022-08-26T08:48:14.745Z,22.10
2022-08-26T08:50:50.244Z,22.10
2022-08-26T08:53:22.684Z,22.10
2022-08-26T08:56:04.154Z,22.10
2022-08-26T08:58:52.584Z,22.10
2022-08-26T09:01:39.861Z,22.10
2022-08-26T09:04:29.633Z,22.10
2022-08-26T09:07:00.976Z,22.10
2022-08-26T09:09:35.610Z,22.10
2022-08-26T09:12:07.709Z,22.10
2022-08-26T09:14:37.360Z,22.10
2022-08-26T09:17:17.744Z,22.10
2022-08-26T09:19:53.743Z,22.00
2022-08-26T09:22:39.103Z,22.00
2022-08-26T09:25:17.351Z,22.00
2022-08-26T09:27:50.295Z,22.10
2022-08-26T09:30:26.423Z,22.00
2022-08-26T09:33:35.172Z,22.10
2022-08-26T09:36:41.431Z,22.10
2022-08-26T09:39:37.834Z,22.10
2022-08-26T09:42:10.615Z,22.10
2022-08-26T09:45:10.483Z,22.10
2022-08-26T09:47:54.546Z,22.10
2022-08-26T09:50:38.044Z,22.10
2022-08-26T09:53:25.252Z,22.10
2022-08-26T09:56:29.486Z,22.20
2022-08-26T09:59:06.504Z,22.20
2022-08-26T10:01:46.035Z,22.20
2022-08-26T10:04:24.048Z,22.20
2022-08-26T10:07:38.863Z,22.20
2022-08-26T10:13:38.614Z,22.20
2022-08-26T10:17:54.882Z,22.30
2022-08-26T10:19:20.244Z,22.30
2022-08-26T10:21:57.636Z,22.30
2022-08-26T10:24:32.391Z,22.30
2022-08-26T10:27:05.190Z,22.30
2022-08-26T10:29:40.849Z,22.30
2022-08-26T10:32:15.127Z,22.30
2022-08-26T10:34:46.014Z,22.30
2022-08-26T10:37:19.221Z,22.30
2022-08-26T10:39:58.566Z,22.40
2022-08-26T10:42:39.760Z,22.40
2022-08-26T10:45:16.271Z,22.40
2022-08-26T10:47:54.236Z,22.40
2022-08-26T10:50:32.262Z,22.40
2022-08-26T10:53:05.967Z,22.50
2022-08-26T10:55:41.825Z,22.50
2022-08-26T10:58:38.162Z,22.50
2022-08-26T11:01:41.925Z,22.60
2022-08-26T11:04:22.427Z,22.60
2022-08-26T11:06:52.173Z,22.70
2022-08-26T11:09:49.728Z,22.70
2022-08-26T11:12:52.167Z,22.70
2022-08-26T11:16:08.547Z,22.80
2022-08-26T11:18:48.839Z,22.80
2022-08-26T11:21:51.037Z,22.90
2022-08-26T11:25:11.530Z,22.90
2022-08-26T11:28:05.209Z,22.90
2022-08-26T11:30:45.970Z,23.00
2022-08-26T11:33:57.171Z,23.10
2022-08-26T11:36:45.339Z,23.10
2022-08-26T11:39:20.861Z,23.20
2022-08-26T11:41:52.607Z,23.30
2022-08-26T11:44:23.545Z,23.30
2022-08-26T11:47:00.309Z,23.40
2022-08-26T11:49:29.683Z,23.50
2022-08-26T11:52:17.103Z,23.60
2022-08-26T11:55:00.519Z,23.70
2022-08-26T11:57:31.683Z,23.80
2022-08-26T12:00:00.226Z,23.80
2022-08-26T12:02:29.199Z,24.00
2022-08-26T12:04:58.074Z,24.00
2022-08-26T12:07:30.337Z,24.10
2022-08-26T12:10:04.997Z,24.20
2022-08-26T12:12:36.151Z,24.30
2022-08-26T12:15:16.807Z,24.40
2022-08-26T12:17:54.634Z,24.50
2022-08-26T12:20:48.198Z,24.50
2022-08-26T12:23:25.995Z,24.60
2022-08-26T12:26:03.627Z,24.80
2022-08-26T12:28:32.245Z,24.90
2022-08-26T12:31:05.763Z,25.00
2022-08-26T12:33:35.957Z,25.10
2022-08-26T12:36:07.704Z,25.20
2022-08-26T12:38:40.374Z,25.40
2022-08-26T12:41:11.274Z,25.40
2022-08-26T12:43:43.687Z,25.50
2022-08-26T12:46:18.024Z,25.60
2022-08-26T12:48:50.094Z,25.70
2022-08-26T12:51:24.587Z,25.80
2022-08-26T12:53:57.015Z,25.90
2022-08-26T12:56:34.324Z,26.00
2022-08-26T12:59:05.398Z,26.10
2022-08-26T13:01:45.567Z,26.20
2022-08-26T13:04:37.221Z,26.20
2022-08-26T13:07:16.599Z,26.40
2022-08-26T13:09:48.738Z,26.50
2022-08-26T13:12:25.640Z,26.60
2022-08-26T13:14:58.718Z,26.70
2022-08-26T13:17:27.631Z,26.90
2022-08-26T13:20:04.119Z,26.90
2022-08-26T13:22:33.664Z,27.00
2022-08-26T13:25:03.303Z,27.10
2022-08-26T13:27:31.394Z,27.20
2022-08-26T13:30:02.751Z,27.20
2022-08-26T13:32:32.756Z,27.30
2022-08-26T13:35:05.680Z,27.40
2022-08-26T13:37:35.614Z,27.50
2022-08-26T13:40:09.519Z,27.50
2022-08-26T13:42:37.791Z,27.60
2022-08-26T13:45:17.951Z,27.70
2022-08-26T13:47:46.083Z,27.70
2022-08-26T13:50:17.145Z,27.80
2022-08-26T13:52:45.246Z,27.80
2022-08-26T13:55:15.608Z,27.90
2022-08-26T13:57:43.737Z,27.90
2022-08-26T14:00:13.115Z,28.00
2022-08-26T14:02:44.198Z,28.10
2022-08-26T14:05:12.576Z,28.10
2022-08-26T14:07:43.324Z,28.10
2022-08-26T14:10:12.655Z,28.20
2022-08-26T14:12:43.751Z,28.20
2022-08-26T14:15:12.978Z,28.30
2022-08-26T14:17:41.165Z,28.40
2022-08-26T14:20:13.107Z,28.40
2022-08-26T14:23:12.566Z,28.50
2022-08-26T14:25:39.143Z,28.60
2022-08-26T14:28:08.801Z,28.70
2022-08-26T14:30:40.219Z,28.70
2022-08-26T14:33:11.605Z,28.70
2022-08-26T14:35:47.994Z,28.80
2022-08-26T14:38:17.544Z,28.80
2022-08-26T14:40:46.719Z,28.80
2022-08-26T14:43:16.322Z,28.80
2022-08-26T14:45:48.186Z,28.80
2022-08-26T14:48:16.276Z,28.80
2022-08-26T14:50:44.473Z,28.80
2022-08-26T14:53:33.218Z,28.80
2022-08-26T14:56:01.494Z,28.80
2022-08-26T14:58:36.636Z,28.80
2022-08-26T15:01:04.821Z,28.70
2022-08-26T15:03:35.983Z,28.70
2022-08-26T15:06:04.244Z,28.60
2022-08-26T15:08:39.740Z,28.60
2022-08-26T15:11:07.845Z,28.60
2022-08-26T15:13:39.743Z,28.50
2022-08-26T15:16:08.191Z,28.40
2022-08-26T15:18:36.270Z,28.20
2022-08-26T15:21:05.317Z,28.00
2022-08-26T15:23:33.454Z,27.90
2022-08-26T15:26:01.860Z,27.90
2022-08-26T15:28:30.523Z,27.90
2022-08-26T15:31:00.612Z,27.80
2022-08-26T15:33:34.664Z,27.90
2022-08-26T15:36:03.480Z,27.80
2022-08-26T15:38:32.031Z,27.70
2022-08-26T15:41:05.742Z,27.60
2022-08-26T15:43:33.923Z,27.50
2022-08-26T15:46:04.750Z,27.40
2022-08-26T15:48:33.137Z,27.40
2022-08-26T15:51:02.516Z,27.30
2022-08-26T15:53:35.339Z,27.20
2022-08-26T15:56:05.283Z,27.10
2022-08-26T15:58:36.337Z,26.90
2022-08-26T16:01:05.751Z,26.80
2022-08-26T16:03:36.776Z,26.70
2022-08-26T16:06:05.298Z,26.60
2022-08-26T16:08:36.760Z,26.50
2022-08-26T16:11:05.851Z,26.40
2022-08-26T16:13:40.032Z,26.40
2022-08-26T16:16:10.025Z,26.40
2022-08-26T16:18:41.089Z,26.30
2022-08-26T16:21:13.359Z,26.20
2022-08-26T16:23:45.579Z,26.20
2022-08-26T16:26:15.587Z,26.10
2022-08-26T16:28:47.319Z,25.70
2022-08-26T16:31:17.328Z,25.30
2022-08-26T16:33:48.952Z,25.00
2022-08-26T16:36:17.317Z,24.80
2022-08-26T16:38:53.389Z,24.50
2022-08-26T16:41:21.539Z,24.50
2022-08-26T16:43:52.701Z,24.40
2022-08-26T16:46:25.603Z,24.40
2022-08-26T16:48:54.355Z,24.30
2022-08-26T16:51:24.612Z,24.30
2022-08-26T16:53:53.484Z,24.30
2022-08-26T16:56:23.853Z,24.20
2022-08-26T16:59:01.751Z,24.00
2022-08-26T17:01:31.255Z,23.90
2022-08-26T17:04:02.247Z,23.90
2022-08-26T17:06:30.764Z,23.80
2022-08-26T17:08:58.866Z,23.80
2022-08-26T17:11:30.726Z,23.80
2022-08-26T17:13:58.778Z,23.80
2022-08-26T17:16:29.291Z,23.80
2022-08-26T17:18:59.879Z,23.80
2022-08-26T17:21:29.466Z,23.80
2022-08-26T17:23:57.581Z,23.90
2022-08-26T17:26:25.962Z,24.00
2022-08-26T17:28:57.098Z,24.00
2022-08-26T17:31:25.971Z,24.00
2022-08-26T17:33:58.514Z,24.00
2022-08-26T17:36:28.468Z,24.10
2022-08-26T17:39:00.084Z,24.10
2022-08-26T17:41:28.668Z,24.10
2022-08-26T17:44:04.165Z,24.10
2022-08-26T17:46:34.183Z,24.10
2022-08-26T17:49:08.245Z,24.10
2022-08-26T17:51:36.293Z,24.10
2022-08-26T17:54:04.714Z,24.10
2022-08-26T17:56:32.905Z,24.10
2022-08-26T17:59:02.292Z,24.10
2022-08-26T18:01:35.121Z,24.10
2022-08-26T18:04:05.058Z,24.10
2022-08-26T18:06:34.158Z,24.10
2022-08-26T18:09:02.745Z,24.10
2022-08-26T18:11:32.034Z,24.00
2022-08-26T18:14:07.766Z,24.00
2022-08-26T18:16:38.366Z,24.00
2022-08-26T18:19:10.167Z,23.90
2022-08-26T18:21:38.323Z,23.80
2022-08-26T18:24:13.776Z,23.80
2022-08-26T18:26:48.285Z,23.70
2022-08-26T18:29:18.287Z,23.70
2022-08-26T18:31:46.576Z,23.70
2022-08-26T18:34:19.815Z,23.70
2022-08-26T18:36:48.855Z,23.60
2022-08-26T18:39:19.178Z,23.60
2022-08-26T18:41:53.302Z,23.60
2022-08-26T18:44:24.603Z,23.50
2022-08-26T18:46:53.485Z,23.50
2022-08-26T18:49:25.517Z,23.40
2022-08-26T18:51:54.121Z,23.40
2022-08-26T18:54:22.651Z,23.40
2022-08-26T18:56:51.024Z,23.40
2022-08-26T18:59:19.126Z,23.40
2022-08-26T19:01:54.883Z,23.40
2022-08-26T19:04:24.373Z,23.40
2022-08-26T19:06:53.200Z,23.30
2022-08-26T19:09:21.961Z,23.30
2022-08-26T19:11:51.165Z,23.30
2022-08-26T19:14:20.491Z,23.30
2022-08-26T19:16:49.900Z,23.30
2022-08-26T19:19:20.872Z,23.30
2022-08-26T19:21:50.627Z,23.30
2022-08-26T19:24:20.027Z,23.20
2022-08-26T19:26:51.406Z,23.20
2022-08-26T19:29:31.251Z,23.20
2022-08-26T19:31:59.418Z,23.10
2022-08-26T19:34:27.866Z,23.10
2022-08-26T19:36:58.379Z,23.10
2022-08-26T19:39:27.556Z,23.10
2022-08-26T19:42:00.337Z,23.00
2022-08-26T19:44:45.838Z,23.00
2022-08-26T19:47:14.709Z,23.00
2022-08-26T19:49:42.979Z,23.00
2022-08-26T19:52:12.679Z,23.00
2022-08-26T19:54:44.416Z,23.00
2022-08-26T19:57:12.511Z,23.00
2022-08-26T19:59:41.434Z,23.00
2022-08-26T20:02:11.202Z,22.90
2022-08-26T20:04:40.774Z,22.90
2022-08-26T20:07:18.605Z,22.80
2022-08-26T20:09:50.402Z,22.80
2022-08-26T20:12:18.949Z,22.70
2022-08-26T20:14:47.035Z,22.60
2022-08-26T20:17:19.378Z,22.60
2022-08-26T20:20:05.194Z,22.60
2022-08-26T20:22:34.846Z,22.50
2022-08-26T20:25:03.043Z,22.40
2022-08-26T20:27:38.118Z,22.30
2022-08-26T20:30:11.942Z,22.30
2022-08-26T20:32:41.550Z,22.20
2022-08-26T20:35:15.040Z,22.20
2022-08-26T20:37:44.608Z,22.10
2022-08-26T20:40:14.861Z,22.10
2022-08-26T20:42:45.152Z,22.00
2022-08-26T20:45:14.329Z,22.00
2022-08-26T20:47:42.754Z,21.90
2022-08-26T20:50:14.254Z,21.90
2022-08-26T20:52:42.392Z,21.80
2022-08-26T20:55:12.276Z,21.80
2022-08-26T20:57:43.043Z,21.70
2022-08-26T21:00:14.082Z,21.70
2022-08-26T21:02:43.623Z,21.70
2022-08-26T21:05:11.732Z,21.70
2022-08-26T21:07:40.021Z,21.70
2022-08-26T21:10:13.469Z,21.70
2022-08-26T21:12:41.591Z,21.70
2022-08-26T21:15:13.221Z,21.60
2022-08-26T21:17:41.407Z,21.60
2022-08-26T21:20:10.206Z,21.60
2022-08-26T21:22:38.299Z,21.60
2022-08-26T21:25:07.307Z,21.50
2022-08-26T21:27:37.969Z,21.50
2022-08-26T21:30:09.346Z,21.40
2022-08-26T21:32:38.418Z,21.40
2022-08-26T21:35:09.586Z,21.40
2022-08-26T21:37:37.656Z,21.40
2022-08-26T21:40:09.606Z,21.50
2022-08-26T21:42:39.066Z,21.50
2022-08-26T21:45:08.884Z,21.50
2022-08-26T21:47:40.574Z,21.40
2022-08-26T21:50:09.163Z,21.40
2022-08-26T21:52:40.147Z,21.40
2022-08-26T21:55:09.270Z,21.40
2022-08-26T21:57:41.321Z,21.30
2022-08-26T22:00:15.829Z,21.30
2022-08-26T22:02:46.500Z,21.30
2022-08-26T22:05:14.762Z,21.30
2022-08-26T22:07:42.901Z,21.30
2022-08-26T22:10:11.280Z,21.30
2022-08-26T22:12:41.739Z,21.20
2022-08-26T22:15:13.219Z,21.10
2022-08-26T22:17:41.289Z,21.10
2022-08-26T22:20:16.510Z,21.10
2022-08-26T22:22:45.023Z,21.10
2022-08-26T22:25:15.467Z,21.20
2022-08-26T22:27:44.899Z,21.10
2022-08-26T22:30:16.029Z,21.20
2022-08-26T22:32:45.592Z,21.20
2022-08-26T22:35:29.160Z,21.20
2022-08-26T22:38:00.556Z,21.10
2022-08-26T22:40:28.727Z,21.10
2022-08-26T22:43:00.224Z,21.10
2022-08-26T22:45:31.273Z,21.10
2022-08-26T22:47:59.634Z,21.10
2022-08-26T22:50:27.862Z,21.10
2022-08-26T22:52:55.991Z,21.10
2022-08-26T22:55:24.123Z,21.10
2022-08-26T22:57:52.294Z,21.10
2022-08-26T23:00:21.990Z,21.10
2022-08-26T23:03:04.251Z,21.00
2022-08-26T23:05:33.299Z,21.10
2022-08-26T23:08:01.829Z,21.00
2022-08-26T23:10:33.165Z,21.00
2022-08-26T23:13:04.176Z,21.00
2022-08-26T23:15:33.743Z,21.00
2022-08-26T23:18:01.946Z,21.00
2022-08-26T23:20:30.743Z,21.00
2022-08-26T23:22:58.940Z,21.00
2022-08-26T23:25:27.970Z,21.00
2022-08-26T23:27:56.655Z,20.90
2022-08-26T23:30:27.483Z,20.90
2022-08-26T23:33:00.032Z,20.90
2022-08-26T23:35:28.674Z,20.90
2022-08-26T23:37:59.597Z,20.80
2022-08-26T23:40:30.624Z,20.70
2022-08-26T23:43:00.618Z,20.70
2022-08-26T23:45:29.283Z,20.70
2022-08-26T23:47:57.487Z,20.70
2022-08-26T23:50:46.234Z,20.70
2022-08-26T23:53:19.390Z,20.70
2022-08-26T23:55:49.198Z,20.70
2022-08-26T23:58:18.446Z,20.70
